sensor_id;sensor_type;location;lat;lon;timestamp;P1;durP1;ratioP1;P2;durP2;ratioP2
47657;SDS011;33958;48.404;10.598;2022-07-06T00:00:50;1.98;;;1.40;;
47657;SDS011;33958;48.404;10.598;2022-07-06T00:03:17;4.72;;;1.70;;
47657;SDS011;33958;48.404;10.598;2022-07-06T00:05:44;1.90;;;1.30;;
47657;SDS011;33958;48.404;10.598;2022-07-06T00:08:11;2.15;;;1.50;;
47657;SDS011;33958;48.404;10.598;2022-07-06T00:10:38;2.83;;;1.45;;
47657;SDS011;33958;48.404;10.598;2022-07-06T00:13:04;2.85;;;1.60;;
47657;SDS011;33958;48.404;10.598;2022-07-06T00:15:31;6.53;;;1.88;;
47657;SDS011;33958;48.404;10.598;2022-07-06T00:17:58;2.38;;;1.40;;
47657;SDS011;33958;48.404;10.598;2022-07-06T00:20:25;6.40;;;1.73;;
47657;SDS011;33958;48.404;10.598;2022-07-06T00:22:52;4.22;;;1.80;;
47657;SDS011;33958;48.404;10.598;2022-07-06T00:25:19;3.20;;;1.40;;
47657;SDS011;33958;48.404;10.598;2022-07-06T00:27:46;3.72;;;1.42;;
47657;SDS011;33958;48.404;10.598;2022-07-06T00:30:13;3.03;;;1.35;;
47657;SDS011;33958;48.404;10.598;2022-07-06T00:32:39;2.47;;;1.60;;
47657;SDS011;33958;48.404;10.598;2022-07-06T00:35:06;2.03;;;1.38;;
47657;SDS011;33958;48.404;10.598;2022-07-06T00:37:33;2.42;;;1.50;;
47657;SDS011;33958;48.404;10.598;2022-07-06T00:40:00;2.83;;;1.50;;
47657;SDS011;33958;48.404;10.598;2022-07-06T00:42:27;3.53;;;1.70;;
47657;SDS011;33958;48.404;10.598;2022-07-06T00:44:54;5.03;;;1.40;;
47657;SDS011;33958;48.404;10.598;2022-07-06T00:47:21;3.83;;;1.83;;
47657;SDS011;33958;48.404;10.598;2022-07-06T00:49:48;2.72;;;1.83;;
47657;SDS011;33958;48.404;10.598;2022-07-06T00:52:33;5.60;;;1.70;;
47657;SDS011;33958;48.404;10.598;2022-07-06T00:55:00;2.83;;;1.60;;
47657;SDS011;33958;48.404;10.598;2022-07-06T00:57:28;4.53;;;1.80;;
47657;SDS011;33958;48.404;10.598;2022-07-06T00:59:55;3.22;;;1.77;;
47657;SDS011;33958;48.404;10.598;2022-07-06T01:02:23;2.53;;;1.52;;
47657;SDS011;33958;48.404;10.598;2022-07-06T01:04:50;2.75;;;1.50;;
47657;SDS011;33958;48.404;10.598;2022-07-06T01:07:17;5.70;;;2.17;;
47657;SDS011;33958;48.404;10.598;2022-07-06T01:09:44;5.22;;;1.73;;
47657;SDS011;33958;48.404;10.598;2022-07-06T01:12:11;3.22;;;1.50;;
47657;SDS011;33958;48.404;10.598;2022-07-06T01:14:37;4.15;;;1.58;;
47657;SDS011;33958;48.404;10.598;2022-07-06T01:17:05;3.53;;;1.75;;
47657;SDS011;33958;48.404;10.598;2022-07-06T01:19:32;3.33;;;1.63;;
47657;SDS011;33958;48.404;10.598;2022-07-06T01:21:59;4.88;;;1.92;;
47657;SDS011;33958;48.404;10.598;2022-07-06T01:24:26;3.47;;;1.90;;
47657;SDS011;33958;48.404;10.598;2022-07-06T01:26:53;4.90;;;2.05;;
47657;SDS011;33958;48.404;10.598;2022-07-06T01:29:20;2.97;;;1.67;;
47657;SDS011;33958;48.404;10.598;2022-07-06T01:31:47;3.08;;;1.60;;
47657;SDS011;33958;48.404;10.598;2022-07-06T01:34:16;2.20;;;1.48;;
47657;SDS011;33958;48.404;10.598;2022-07-06T01:36:45;4.65;;;1.52;;
47657;SDS011;33958;48.404;10.598;2022-07-06T01:39:12;8.32;;;1.85;;
47657;SDS011;33958;48.404;10.598;2022-07-06T01:41:39;4.10;;;1.80;;
47657;SDS011;33958;48.404;10.598;2022-07-06T01:44:06;3.70;;;1.80;;
47657;SDS011;33958;48.404;10.598;2022-07-06T01:46:34;4.60;;;1.58;;
47657;SDS011;33958;48.404;10.598;2022-07-06T01:49:01;3.70;;;1.83;;
47657;SDS011;33958;48.404;10.598;2022-07-06T01:51:29;3.88;;;1.60;;
47657;SDS011;33958;48.404;10.598;2022-07-06T01:53:56;4.03;;;1.70;;
47657;SDS011;33958;48.404;10.598;2022-07-06T01:56:23;5.07;;;2.22;;
47657;SDS011;33958;48.404;10.598;2022-07-06T01:58:51;2.97;;;1.73;;
47657;SDS011;33958;48.404;10.598;2022-07-06T02:01:18;4.65;;;2.10;;
47657;SDS011;33958;48.404;10.598;2022-07-06T02:03:46;2.45;;;1.65;;
47657;SDS011;33958;48.404;10.598;2022-07-06T02:06:14;4.32;;;2.28;;
47657;SDS011;33958;48.404;10.598;2022-07-06T02:08:41;5.07;;;2.17;;
47657;SDS011;33958;48.404;10.598;2022-07-06T02:11:08;3.97;;;2.00;;
47657;SDS011;33958;48.404;10.598;2022-07-06T02:13:36;3.15;;;1.95;;
47657;SDS011;33958;48.404;10.598;2022-07-06T02:16:03;3.67;;;1.90;;
47657;SDS011;33958;48.404;10.598;2022-07-06T02:18:31;7.85;;;2.20;;
47657;SDS011;33958;48.404;10.598;2022-07-06T02:20:58;3.20;;;1.88;;
47657;SDS011;33958;48.404;10.598;2022-07-06T02:23:25;6.35;;;2.15;;
47657;SDS011;33958;48.404;10.598;2022-07-06T02:25:52;2.92;;;1.73;;
47657;SDS011;33958;48.404;10.598;2022-07-06T02:28:19;3.47;;;2.00;;
47657;SDS011;33958;48.404;10.598;2022-07-06T02:30:46;4.18;;;2.15;;
47657;SDS011;33958;48.404;10.598;2022-07-06T02:33:13;3.83;;;2.20;;
47657;SDS011;33958;48.404;10.598;2022-07-06T02:35:40;4.30;;;1.95;;
47657;SDS011;33958;48.404;10.598;2022-07-06T02:38:09;4.82;;;2.20;;
47657;SDS011;33958;48.404;10.598;2022-07-06T02:40:36;4.93;;;2.00;;
47657;SDS011;33958;48.404;10.598;2022-07-06T02:43:04;9.23;;;2.10;;
47657;SDS011;33958;48.404;10.598;2022-07-06T02:45:31;3.17;;;1.67;;
47657;SDS011;33958;48.404;10.598;2022-07-06T02:47:59;4.32;;;2.00;;
47657;SDS011;33958;48.404;10.598;2022-07-06T02:50:25;3.13;;;1.60;;
47657;SDS011;33958;48.404;10.598;2022-07-06T02:52:52;5.30;;;1.95;;
47657;SDS011;33958;48.404;10.598;2022-07-06T02:55:21;3.30;;;2.17;;
47657;SDS011;33958;48.404;10.598;2022-07-06T02:57:48;5.65;;;2.00;;
47657;SDS011;33958;48.404;10.598;2022-07-06T03:00:15;5.90;;;2.35;;
47657;SDS011;33958;48.404;10.598;2022-07-06T03:02:42;3.25;;;2.20;;
47657;SDS011;33958;48.404;10.598;2022-07-06T03:05:09;8.10;;;2.40;;
47657;SDS011;33958;48.404;10.598;2022-07-06T03:07:36;5.03;;;2.35;;
47657;SDS011;33958;48.404;10.598;2022-07-06T03:10:03;4.32;;;1.98;;
47657;SDS011;33958;48.404;10.598;2022-07-06T03:12:30;3.03;;;2.00;;
47657;SDS011;33958;48.404;10.598;2022-07-06T03:14:57;3.47;;;2.20;;
47657;SDS011;33958;48.404;10.598;2022-07-06T03:17:24;6.82;;;2.10;;
47657;SDS011;33958;48.404;10.598;2022-07-06T03:19:51;3.35;;;1.90;;
47657;SDS011;33958;48.404;10.598;2022-07-06T03:22:19;5.93;;;2.30;;
47657;SDS011;33958;48.404;10.598;2022-07-06T03:24:45;3.30;;;2.13;;
47657;SDS011;33958;48.404;10.598;2022-07-06T03:27:12;2.92;;;1.90;;
47657;SDS011;33958;48.404;10.598;2022-07-06T03:29:39;3.83;;;1.92;;
47657;SDS011;33958;48.404;10.598;2022-07-06T03:32:06;4.85;;;1.90;;
47657;SDS011;33958;48.404;10.598;2022-07-06T03:34:33;3.65;;;2.10;;
47657;SDS011;33958;48.404;10.598;2022-07-06T03:37:00;3.75;;;2.15;;
47657;SDS011;33958;48.404;10.598;2022-07-06T03:39:27;3.85;;;2.20;;
47657;SDS011;33958;48.404;10.598;2022-07-06T03:41:54;3.03;;;1.70;;
47657;SDS011;33958;48.404;10.598;2022-07-06T03:44:20;3.30;;;1.90;;
47657;SDS011;33958;48.404;10.598;2022-07-06T03:46:48;3.35;;;2.00;;
47657;SDS011;33958;48.404;10.598;2022-07-06T03:49:15;4.25;;;2.20;;
47657;SDS011;33958;48.404;10.598;2022-07-06T03:51:42;4.22;;;2.00;;
47657;SDS011;33958;48.404;10.598;2022-07-06T03:54:09;7.80;;;2.40;;
47657;SDS011;33958;48.404;10.598;2022-07-06T03:56:36;3.90;;;2.00;;
47657;SDS011;33958;48.404;10.598;2022-07-06T03:59:04;3.78;;;2.17;;
47657;SDS011;33958;48.404;10.598;2022-07-06T04:01:31;4.25;;;2.35;;
47657;SDS011;33958;48.404;10.598;2022-07-06T04:03:58;3.72;;;2.20;;
47657;SDS011;33958;48.404;10.598;2022-07-06T04:06:25;3.50;;;2.25;;
47657;SDS011;33958;48.404;10.598;2022-07-06T04:08:52;4.03;;;2.28;;
47657;SDS011;33958;48.404;10.598;2022-07-06T04:11:19;5.75;;;2.15;;
47657;SDS011;33958;48.404;10.598;2022-07-06T04:13:46;2.60;;;1.88;;
47657;SDS011;33958;48.404;10.598;2022-07-06T04:16:13;3.55;;;1.95;;
47657;SDS011;33958;48.404;10.598;2022-07-06T04:18:39;4.15;;;2.05;;
47657;SDS011;33958;48.404;10.598;2022-07-06T04:21:07;3.88;;;1.90;;
47657;SDS011;33958;48.404;10.598;2022-07-06T04:23:33;3.85;;;1.88;;
47657;SDS011;33958;48.404;10.598;2022-07-06T04:26:00;5.93;;;2.05;;
47657;SDS011;33958;48.404;10.598;2022-07-06T04:28:27;8.02;;;2.45;;
47657;SDS011;33958;48.404;10.598;2022-07-06T04:30:54;3.15;;;2.08;;
47657;SDS011;33958;48.404;10.598;2022-07-06T04:33:21;4.72;;;2.20;;
47657;SDS011;33958;48.404;10.598;2022-07-06T04:35:48;3.75;;;2.10;;
47657;SDS011;33958;48.404;10.598;2022-07-06T04:38:15;4.55;;;1.90;;
47657;SDS011;33958;48.404;10.598;2022-07-06T04:40:42;8.13;;;2.10;;
47657;SDS011;33958;48.404;10.598;2022-07-06T04:43:08;5.03;;;2.08;;
47657;SDS011;33958;48.404;10.598;2022-07-06T04:45:35;4.00;;;2.00;;
47657;SDS011;33958;48.404;10.598;2022-07-06T04:48:02;3.75;;;2.05;;
47657;SDS011;33958;48.404;10.598;2022-07-06T04:50:30;6.55;;;2.40;;
47657;SDS011;33958;48.404;10.598;2022-07-06T04:53:05;10.20;;;2.92;;
47657;SDS011;33958;48.404;10.598;2022-07-06T04:55:32;4.75;;;2.00;;
47657;SDS011;33958;48.404;10.598;2022-07-06T04:57:58;5.25;;;2.40;;
47657;SDS011;33958;48.404;10.598;2022-07-06T05:00:26;3.28;;;1.77;;
47657;SDS011;33958;48.404;10.598;2022-07-06T05:02:52;6.75;;;2.15;;
47657;SDS011;33958;48.404;10.598;2022-07-06T05:05:19;4.35;;;2.10;;
47657;SDS011;33958;48.404;10.598;2022-07-06T05:07:46;5.10;;;1.92;;
47657;SDS011;33958;48.404;10.598;2022-07-06T05:10:13;2.58;;;1.77;;
47657;SDS011;33958;48.404;10.598;2022-07-06T05:12:40;5.75;;;2.30;;
47657;SDS011;33958;48.404;10.598;2022-07-06T05:15:07;4.07;;;2.00;;
47657;SDS011;33958;48.404;10.598;2022-07-06T05:17:35;4.20;;;2.13;;
47657;SDS011;33958;48.404;10.598;2022-07-06T05:20:02;3.72;;;1.98;;
47657;SDS011;33958;48.404;10.598;2022-07-06T05:22:29;15.20;;;2.35;;
47657;SDS011;33958;48.404;10.598;2022-07-06T05:24:56;5.55;;;2.20;;
47657;SDS011;33958;48.404;10.598;2022-07-06T05:27:23;4.50;;;1.90;;
47657;SDS011;33958;48.404;10.598;2022-07-06T05:29:50;6.57;;;1.83;;
47657;SDS011;33958;48.404;10.598;2022-07-06T05:32:17;4.68;;;1.63;;
47657;SDS011;33958;48.404;10.598;2022-07-06T05:34:44;6.75;;;2.20;;
47657;SDS011;33958;48.404;10.598;2022-07-06T05:37:11;3.50;;;2.00;;
47657;SDS011;33958;48.404;10.598;2022-07-06T05:39:38;4.57;;;2.17;;
47657;SDS011;33958;48.404;10.598;2022-07-06T05:42:07;4.45;;;2.03;;
47657;SDS011;33958;48.404;10.598;2022-07-06T05:44:34;4.07;;;2.03;;
47657;SDS011;33958;48.404;10.598;2022-07-06T05:47:01;4.85;;;2.00;;
47657;SDS011;33958;48.404;10.598;2022-07-06T05:49:47;4.18;;;1.60;;
47657;SDS011;33958;48.404;10.598;2022-07-06T05:52:32;7.03;;;1.85;;
47657;SDS011;33958;48.404;10.598;2022-07-06T05:55:00;2.75;;;1.70;;
47657;SDS011;33958;48.404;10.598;2022-07-06T05:57:26;3.53;;;1.70;;
47657;SDS011;33958;48.404;10.598;2022-07-06T05:59:54;3.42;;;1.73;;
47657;SDS011;33958;48.404;10.598;2022-07-06T06:02:20;5.50;;;1.98;;
47657;SDS011;33958;48.404;10.598;2022-07-06T06:04:47;4.35;;;1.77;;
47657;SDS011;33958;48.404;10.598;2022-07-06T06:07:14;4.75;;;2.05;;
47657;SDS011;33958;48.404;10.598;2022-07-06T06:09:41;3.17;;;1.92;;
47657;SDS011;33958;48.404;10.598;2022-07-06T06:12:08;5.88;;;1.55;;
47657;SDS011;33958;48.404;10.598;2022-07-06T06:14:35;3.42;;;2.03;;
47657;SDS011;33958;48.404;10.598;2022-07-06T06:17:03;2.97;;;1.42;;
47657;SDS011;33958;48.404;10.598;2022-07-06T06:19:36;4.40;;;1.77;;
47657;SDS011;33958;48.404;10.598;2022-07-06T06:22:03;4.60;;;1.63;;
47657;SDS011;33958;48.404;10.598;2022-07-06T06:24:30;3.60;;;1.77;;
47657;SDS011;33958;48.404;10.598;2022-07-06T06:26:57;4.80;;;1.73;;
47657;SDS011;33958;48.404;10.598;2022-07-06T06:29:25;4.22;;;1.50;;
47657;SDS011;33958;48.404;10.598;2022-07-06T06:31:52;3.50;;;1.92;;
47657;SDS011;33958;48.404;10.598;2022-07-06T06:34:19;5.40;;;1.80;;
47657;SDS011;33958;48.404;10.598;2022-07-06T06:36:46;4.07;;;1.80;;
47657;SDS011;33958;48.404;10.598;2022-07-06T06:39:13;2.92;;;1.80;;
47657;SDS011;33958;48.404;10.598;2022-07-06T06:41:40;5.97;;;1.80;;
47657;SDS011;33958;48.404;10.598;2022-07-06T06:44:08;3.47;;;1.80;;
47657;SDS011;33958;48.404;10.598;2022-07-06T06:46:35;6.03;;;1.77;;
47657;SDS011;33958;48.404;10.598;2022-07-06T06:49:03;2.83;;;1.42;;
47657;SDS011;33958;48.404;10.598;2022-07-06T06:51:30;6.00;;;1.73;;
47657;SDS011;33958;48.404;10.598;2022-07-06T06:53:57;2.63;;;1.63;;
47657;SDS011;33958;48.404;10.598;2022-07-06T06:56:23;5.28;;;1.33;;
47657;SDS011;33958;48.404;10.598;2022-07-06T06:58:50;4.15;;;1.80;;
47657;SDS011;33958;48.404;10.598;2022-07-06T07:01:37;5.15;;;1.77;;
47657;SDS011;33958;48.404;10.598;2022-07-06T07:04:04;2.58;;;1.50;;
47657;SDS011;33958;48.404;10.598;2022-07-06T07:06:32;4.63;;;1.65;;
47657;SDS011;33958;48.404;10.598;2022-07-06T07:09:00;3.90;;;1.88;;
47657;SDS011;33958;48.404;10.598;2022-07-06T07:11:27;3.75;;;1.50;;
47657;SDS011;33958;48.404;10.598;2022-07-06T07:13:54;5.53;;;1.60;;
47657;SDS011;33958;48.404;10.598;2022-07-06T07:16:20;4.82;;;1.88;;
47657;SDS011;33958;48.404;10.598;2022-07-06T07:18:48;3.72;;;1.88;;
47657;SDS011;33958;48.404;10.598;2022-07-06T07:21:14;3.15;;;1.80;;
47657;SDS011;33958;48.404;10.598;2022-07-06T07:23:42;6.13;;;1.80;;
47657;SDS011;33958;48.404;10.598;2022-07-06T07:26:09;3.33;;;1.73;;
47657;SDS011;33958;48.404;10.598;2022-07-06T07:28:36;3.05;;;1.35;;
47657;SDS011;33958;48.404;10.598;2022-07-06T07:31:03;2.88;;;1.83;;
47657;SDS011;33958;48.404;10.598;2022-07-06T07:33:31;5.93;;;1.77;;
47657;SDS011;33958;48.404;10.598;2022-07-06T07:35:58;5.97;;;1.90;;
47657;SDS011;33958;48.404;10.598;2022-07-06T07:38:25;3.80;;;1.50;;
47657;SDS011;33958;48.404;10.598;2022-07-06T07:40:53;3.75;;;2.00;;
47657;SDS011;33958;48.404;10.598;2022-07-06T07:43:21;3.00;;;1.60;;
47657;SDS011;33958;48.404;10.598;2022-07-06T07:45:48;4.30;;;1.80;;
47657;SDS011;33958;48.404;10.598;2022-07-06T07:48:16;4.72;;;1.83;;
47657;SDS011;33958;48.404;10.598;2022-07-06T07:50:43;2.83;;;1.60;;
47657;SDS011;33958;48.404;10.598;2022-07-06T07:53:10;3.58;;;1.70;;
47657;SDS011;33958;48.404;10.598;2022-07-06T07:55:37;3.80;;;1.73;;
47657;SDS011;33958;48.404;10.598;2022-07-06T08:00:34;3.55;;;1.90;;
47657;SDS011;33958;48.404;10.598;2022-07-06T08:03:01;3.22;;;1.52;;
47657;SDS011;33958;48.404;10.598;2022-07-06T08:05:28;3.00;;;1.70;;
47657;SDS011;33958;48.404;10.598;2022-07-06T08:07:55;4.40;;;1.85;;
47657;SDS011;33958;48.404;10.598;2022-07-06T08:10:22;2.67;;;1.60;;
47657;SDS011;33958;48.404;10.598;2022-07-06T08:12:49;5.28;;;1.70;;
47657;SDS011;33958;48.404;10.598;2022-07-06T08:15:16;4.32;;;1.90;;
47657;SDS011;33958;48.404;10.598;2022-07-06T08:17:42;6.53;;;2.13;;
47657;SDS011;33958;48.404;10.598;2022-07-06T08:20:10;4.45;;;1.60;;
47657;SDS011;33958;48.404;10.598;2022-07-06T08:22:38;3.80;;;1.90;;
47657;SDS011;33958;48.404;10.598;2022-07-06T08:25:05;5.93;;;1.92;;
47657;SDS011;33958;48.404;10.598;2022-07-06T08:27:32;4.93;;;1.67;;
47657;SDS011;33958;48.404;10.598;2022-07-06T08:30:04;2.30;;;1.60;;
47657;SDS011;33958;48.404;10.598;2022-07-06T08:32:36;3.17;;;1.48;;
47657;SDS011;33958;48.404;10.598;2022-07-06T08:35:25;2.35;;;1.55;;
47657;SDS011;33958;48.404;10.598;2022-07-06T08:37:52;4.20;;;1.50;;
47657;SDS011;33958;48.404;10.598;2022-07-06T08:40:19;4.03;;;1.70;;
47657;SDS011;33958;48.404;10.598;2022-07-06T08:42:47;5.43;;;1.80;;
47657;SDS011;33958;48.404;10.598;2022-07-06T08:45:16;7.20;;;2.20;;
47657;SDS011;33958;48.404;10.598;2022-07-06T08:47:45;5.95;;;1.80;;
47657;SDS011;33958;48.404;10.598;2022-07-06T08:52:42;5.85;;;1.90;;
47657;SDS011;33958;48.404;10.598;2022-07-06T08:55:10;7.30;;;1.70;;
47657;SDS011;33958;48.404;10.598;2022-07-06T08:57:38;7.15;;;1.85;;
47657;SDS011;33958;48.404;10.598;2022-07-06T09:02:35;3.10;;;1.65;;
47657;SDS011;33958;48.404;10.598;2022-07-06T09:05:03;3.67;;;1.80;;
47657;SDS011;33958;48.404;10.598;2022-07-06T09:07:31;6.93;;;1.60;;
47657;SDS011;33958;48.404;10.598;2022-07-06T09:10:20;3.00;;;1.52;;
47657;SDS011;33958;48.404;10.598;2022-07-06T09:12:48;5.10;;;1.40;;
47657;SDS011;33958;48.404;10.598;2022-07-06T09:15:15;3.22;;;1.80;;
47657;SDS011;33958;48.404;10.598;2022-07-06T09:17:42;8.20;;;1.83;;
47657;SDS011;33958;48.404;10.598;2022-07-06T09:20:10;4.18;;;1.75;;
47657;SDS011;33958;48.404;10.598;2022-07-06T09:22:39;2.55;;;1.75;;
47657;SDS011;33958;48.404;10.598;2022-07-06T09:25:11;4.38;;;2.03;;
47657;SDS011;33958;48.404;10.598;2022-07-06T09:27:43;3.72;;;1.65;;
47657;SDS011;33958;48.404;10.598;2022-07-06T09:30:14;3.60;;;1.45;;
47657;SDS011;33958;48.404;10.598;2022-07-06T09:32:46;4.18;;;1.50;;
47657;SDS011;33958;48.404;10.598;2022-07-06T09:35:21;4.00;;;1.50;;
47657;SDS011;33958;48.404;10.598;2022-07-06T09:40:32;3.47;;;1.50;;
47657;SDS011;33958;48.404;10.598;2022-07-06T09:45:38;2.53;;;1.35;;
47657;SDS011;33958;48.404;10.598;2022-07-06T09:48:10;6.55;;;1.48;;
47657;SDS011;33958;48.404;10.598;2022-07-06T09:50:41;4.25;;;1.55;;
47657;SDS011;33958;48.404;10.598;2022-07-06T09:53:10;2.25;;;1.38;;
47657;SDS011;33958;48.404;10.598;2022-07-06T09:55:38;2.67;;;1.50;;
47657;SDS011;33958;48.404;10.598;2022-07-06T09:58:08;5.60;;;1.60;;
47657;SDS011;33958;48.404;10.598;2022-07-06T10:00:36;2.60;;;1.58;;
47657;SDS011;33958;48.404;10.598;2022-07-06T10:03:04;2.30;;;1.52;;
47657;SDS011;33958;48.404;10.598;2022-07-06T10:05:32;4.03;;;1.52;;
47657;SDS011;33958;48.404;10.598;2022-07-06T10:08:00;5.18;;;1.55;;
47657;SDS011;33958;48.404;10.598;2022-07-06T10:10:28;7.95;;;1.58;;
47657;SDS011;33958;48.404;10.598;2022-07-06T10:12:56;5.00;;;1.58;;
47657;SDS011;33958;48.404;10.598;2022-07-06T10:15:24;2.75;;;1.63;;
47657;SDS011;33958;48.404;10.598;2022-07-06T10:17:52;2.40;;;1.50;;
47657;SDS011;33958;48.404;10.598;2022-07-06T10:20:21;3.65;;;2.00;;
47657;SDS011;33958;48.404;10.598;2022-07-06T10:22:48;3.17;;;1.23;;
47657;SDS011;33958;48.404;10.598;2022-07-06T10:25:16;5.95;;;1.45;;
47657;SDS011;33958;48.404;10.598;2022-07-06T10:27:44;5.97;;;1.42;;
47657;SDS011;33958;48.404;10.598;2022-07-06T10:30:13;4.13;;;1.65;;
47657;SDS011;33958;48.404;10.598;2022-07-06T10:32:42;3.92;;;1.45;;
47657;SDS011;33958;48.404;10.598;2022-07-06T10:35:12;4.03;;;1.58;;
47657;SDS011;33958;48.404;10.598;2022-07-06T10:37:40;5.43;;;1.63;;
47657;SDS011;33958;48.404;10.598;2022-07-06T10:40:10;1.85;;;1.15;;
47657;SDS011;33958;48.404;10.598;2022-07-06T10:43:02;6.63;;;1.33;;
47657;SDS011;33958;48.404;10.598;2022-07-06T10:50:38;5.10;;;1.30;;
47657;SDS011;33958;48.404;10.598;2022-07-06T10:53:10;3.05;;;1.30;;
47657;SDS011;33958;48.404;10.598;2022-07-06T10:55:45;4.88;;;1.45;;
47657;SDS011;33958;48.404;10.598;2022-07-06T11:01:12;4.85;;;1.38;;
47657;SDS011;33958;48.404;10.598;2022-07-06T11:03:43;4.72;;;1.38;;
47657;SDS011;33958;48.404;10.598;2022-07-06T11:06:24;4.35;;;1.70;;
47657;SDS011;33958;48.404;10.598;2022-07-06T11:13:58;2.85;;;1.23;;
47657;SDS011;33958;48.404;10.598;2022-07-06T11:16:25;4.07;;;1.33;;
47657;SDS011;33958;48.404;10.598;2022-07-06T11:19:02;5.72;;;1.50;;
47657;SDS011;33958;48.404;10.598;2022-07-06T11:24:38;6.05;;;1.45;;
47657;SDS011;33958;48.404;10.598;2022-07-06T11:27:06;3.22;;;1.40;;
47657;SDS011;33958;48.404;10.598;2022-07-06T11:29:34;3.97;;;1.50;;
47657;SDS011;33958;48.404;10.598;2022-07-06T11:32:05;4.78;;;1.58;;
47657;SDS011;33958;48.404;10.598;2022-07-06T11:34:37;4.82;;;1.60;;
47657;SDS011;33958;48.404;10.598;2022-07-06T11:37:08;6.68;;;1.40;;
47657;SDS011;33958;48.404;10.598;2022-07-06T11:39:41;2.58;;;1.33;;
47657;SDS011;33958;48.404;10.598;2022-07-06T11:42:09;3.70;;;1.20;;
47657;SDS011;33958;48.404;10.598;2022-07-06T11:44:37;1.70;;;1.25;;
47657;SDS011;33958;48.404;10.598;2022-07-06T11:47:05;2.63;;;1.23;;
47657;SDS011;33958;48.404;10.598;2022-07-06T11:49:33;2.15;;;1.30;;
47657;SDS011;33958;48.404;10.598;2022-07-06T11:52:11;4.28;;;1.35;;
47657;SDS011;33958;48.404;10.598;2022-07-06T11:54:39;2.70;;;1.55;;
47657;SDS011;33958;48.404;10.598;2022-07-06T11:57:07;3.67;;;1.30;;
47657;SDS011;33958;48.404;10.598;2022-07-06T11:59:37;2.15;;;1.05;;
47657;SDS011;33958;48.404;10.598;2022-07-06T12:02:08;4.22;;;1.67;;
47657;SDS011;33958;48.404;10.598;2022-07-06T12:04:41;1.85;;;1.30;;
47657;SDS011;33958;48.404;10.598;2022-07-06T12:07:10;1.95;;;1.27;;
47657;SDS011;33958;48.404;10.598;2022-07-06T12:09:40;3.45;;;1.20;;
47657;SDS011;33958;48.404;10.598;2022-07-06T12:12:09;2.95;;;1.40;;
47657;SDS011;33958;48.404;10.598;2022-07-06T12:14:37;3.55;;;1.15;;
47657;SDS011;33958;48.404;10.598;2022-07-06T12:17:09;2.03;;;1.07;;
47657;SDS011;33958;48.404;10.598;2022-07-06T12:19:37;4.25;;;1.35;;
47657;SDS011;33958;48.404;10.598;2022-07-06T12:22:05;2.97;;;1.33;;
47657;SDS011;33958;48.404;10.598;2022-07-06T12:24:34;1.35;;;1.00;;
47657;SDS011;33958;48.404;10.598;2022-07-06T12:27:10;4.13;;;1.35;;
47657;SDS011;33958;48.404;10.598;2022-07-06T12:29:42;1.98;;;1.20;;
47657;SDS011;33958;48.404;10.598;2022-07-06T12:32:16;1.90;;;1.00;;
47657;SDS011;33958;48.404;10.598;2022-07-06T12:34:44;2.90;;;1.20;;
47657;SDS011;33958;48.404;10.598;2022-07-06T12:37:11;5.53;;;1.50;;
47657;SDS011;33958;48.404;10.598;2022-07-06T12:39:42;3.55;;;1.10;;
47657;SDS011;33958;48.404;10.598;2022-07-06T12:42:12;2.85;;;1.20;;
47657;SDS011;33958;48.404;10.598;2022-07-06T12:44:49;1.40;;;1.00;;
47657;SDS011;33958;48.404;10.598;2022-07-06T12:47:18;3.17;;;1.10;;
47657;SDS011;33958;48.404;10.598;2022-07-06T12:49:48;2.80;;;1.38;;
47657;SDS011;33958;48.404;10.598;2022-07-06T12:52:29;5.78;;;1.20;;
47657;SDS011;33958;48.404;10.598;2022-07-06T12:54:59;2.22;;;1.20;;
47657;SDS011;33958;48.404;10.598;2022-07-06T12:57:46;2.28;;;1.20;;
47657;SDS011;33958;48.404;10.598;2022-07-06T13:00:14;2.65;;;1.13;;
47657;SDS011;33958;48.404;10.598;2022-07-06T13:02:43;3.35;;;1.20;;
47657;SDS011;33958;48.404;10.598;2022-07-06T13:05:32;2.50;;;1.30;;
47657;SDS011;33958;48.404;10.598;2022-07-06T13:07:59;3.85;;;1.40;;
47657;SDS011;33958;48.404;10.598;2022-07-06T13:10:28;4.07;;;1.50;;
47657;SDS011;33958;48.404;10.598;2022-07-06T13:12:57;2.65;;;1.38;;
47657;SDS011;33958;48.404;10.598;2022-07-06T13:15:25;3.35;;;1.27;;
47657;SDS011;33958;48.404;10.598;2022-07-06T13:17:52;3.63;;;1.30;;
47657;SDS011;33958;48.404;10.598;2022-07-06T13:20:19;2.75;;;1.50;;
47657;SDS011;33958;48.404;10.598;2022-07-06T13:22:45;2.05;;;1.20;;
47657;SDS011;33958;48.404;10.598;2022-07-06T13:25:13;2.97;;;1.40;;
47657;SDS011;33958;48.404;10.598;2022-07-06T13:27:40;4.47;;;1.40;;
47657;SDS011;33958;48.404;10.598;2022-07-06T13:30:07;2.25;;;1.20;;
47657;SDS011;33958;48.404;10.598;2022-07-06T13:32:34;1.02;;;0.90;;
47657;SDS011;33958;48.404;10.598;2022-07-06T13:35:02;2.75;;;1.20;;
47657;SDS011;33958;48.404;10.598;2022-07-06T13:37:29;4.10;;;1.60;;
47657;SDS011;33958;48.404;10.598;2022-07-06T13:39:56;3.75;;;1.80;;
47657;SDS011;33958;48.404;10.598;2022-07-06T13:42:22;2.75;;;1.15;;
47657;SDS011;33958;48.404;10.598;2022-07-06T13:44:49;3.58;;;1.42;;
47657;SDS011;33958;48.404;10.598;2022-07-06T13:47:16;4.45;;;1.27;;
47657;SDS011;33958;48.404;10.598;2022-07-06T13:49:43;3.65;;;1.27;;
47657;SDS011;33958;48.404;10.598;2022-07-06T13:52:14;3.22;;;1.13;;
47657;SDS011;33958;48.404;10.598;2022-07-06T13:54:41;2.80;;;1.25;;
47657;SDS011;33958;48.404;10.598;2022-07-06T13:57:08;4.45;;;1.10;;
47657;SDS011;33958;48.404;10.598;2022-07-06T13:59:35;2.55;;;1.02;;
47657;SDS011;33958;48.404;10.598;2022-07-06T14:02:01;3.72;;;1.40;;
47657;SDS011;33958;48.404;10.598;2022-07-06T14:04:29;5.25;;;1.38;;
47657;SDS011;33958;48.404;10.598;2022-07-06T14:06:56;1.30;;;1.13;;
47657;SDS011;33958;48.404;10.598;2022-07-06T14:09:23;4.53;;;1.25;;
47657;SDS011;33958;48.404;10.598;2022-07-06T14:11:50;6.43;;;1.30;;
47657;SDS011;33958;48.404;10.598;2022-07-06T14:14:17;3.75;;;1.17;;
47657;SDS011;33958;48.404;10.598;2022-07-06T14:16:43;2.05;;;1.30;;
47657;SDS011;33958;48.404;10.598;2022-07-06T14:19:11;2.53;;;1.40;;
47657;SDS011;33958;48.404;10.598;2022-07-06T14:21:45;1.73;;;1.02;;
47657;SDS011;33958;48.404;10.598;2022-07-06T14:24:12;1.65;;;1.13;;
47657;SDS011;33958;48.404;10.598;2022-07-06T14:26:39;4.05;;;1.40;;
47657;SDS011;33958;48.404;10.598;2022-07-06T14:29:07;2.92;;;1.33;;
47657;SDS011;33958;48.404;10.598;2022-07-06T14:31:33;2.90;;;1.42;;
47657;SDS011;33958;48.404;10.598;2022-07-06T14:34:01;3.47;;;1.55;;
47657;SDS011;33958;48.404;10.598;2022-07-06T14:36:27;1.65;;;1.17;;
47657;SDS011;33958;48.404;10.598;2022-07-06T14:38:54;2.28;;;1.48;;
47657;SDS011;33958;48.404;10.598;2022-07-06T14:41:21;2.33;;;1.50;;
47657;SDS011;33958;48.404;10.598;2022-07-06T14:43:48;2.42;;;1.30;;
47657;SDS011;33958;48.404;10.598;2022-07-06T14:46:15;8.93;;;1.77;;
47657;SDS011;33958;48.404;10.598;2022-07-06T14:48:42;4.53;;;1.48;;
47657;SDS011;33958;48.404;10.598;2022-07-06T14:51:09;2.85;;;1.00;;
47657;SDS011;33958;48.404;10.598;2022-07-06T14:53:36;3.67;;;1.25;;
47657;SDS011;33958;48.404;10.598;2022-07-06T14:56:03;3.78;;;1.17;;
47657;SDS011;33958;48.404;10.598;2022-07-06T14:58:30;2.35;;;1.20;;
47657;SDS011;33958;48.404;10.598;2022-07-06T15:00:57;5.03;;;1.30;;
47657;SDS011;33958;48.404;10.598;2022-07-06T15:03:25;4.20;;;1.23;;
47657;SDS011;33958;48.404;10.598;2022-07-06T15:05:53;1.58;;;1.08;;
47657;SDS011;33958;48.404;10.598;2022-07-06T15:08:20;2.20;;;1.30;;